TAF Text Data
IDs:
Format:
Raw Decoded Include METAR

Data at: 0926 UTC 07 Dec 2021

KTYS 070853Z 05005KT 10SM FEW250 M01/M04 A3020 RMK AO2 SLP228 T10111044 53006

KTYS 070522Z 0706/0806 01008KT P6SM SKC
  FM072100 03004KT P6SM BKN060
  FM080300 00000KT P6SM OVC040


KGSO 070854Z 01005KT 10SM SCT047 03/M11 A3012 RMK AO2 SLP198 T00331106 53024

KGSO 070540Z 0706/0806 36008G14KT P6SM BKN050
  FM070800 03007KT P6SM SKC
  FM080000 09003KT P6SM BKN070


KCLT 070852Z 02008KT 10SM CLR 07/M06 A3009 RMK AO2 SLP187 T00721061 53017

KCLT 070858Z 0709/0812 03008KT P6SM SCT050
  FM071500 06009KT P6SM SCT050
  FM072100 10005KT P6SM SCT040 BKN120
  FM080600 08004KT P6SM BKN035
  PROB30 0808/0812 6SM -RA BR OVC020


KRDU 070851Z 01007KT 10SM FEW045 BKN055 08/M09 A3011 RMK AO2 SLP196 T00781094 51028

KRDU 070540Z 0706/0806 36010G17KT P6SM BKN050
  FM071200 06006KT P6SM BKN050


KPOB 070856Z AUTO 02006KT 10SM OVC036 11/M06 A3007 RMK AO2 SLP185 T01141060 52034 $

TAF KPOB 070200Z 0702/0808 26010G15KT 9999 VCSH FEW012 BKN020 OVC040 520102 QNH2991INS
  BECMG 0704/0705 35012G24KT 9999 NSW FEW020 BKN030 OVC050 520004 QNH2997INS
  BECMG 0709/0710 02012G21KT 9999 SCT030 OVC050 QNH3010INS
  BECMG 0716/0717 04010G15KT 9999 BKN050 QNH3018INS
  BECMG 0721/0722 05007KT 9999 SCT040 BKN080 QNH3016INS TX19/0703Z TN06/0802Z LAST NO AMDS AFT 0703 NEXT 0718


KFBG 070856Z AUTO 35006G15KT 10SM OVC036 12/M05 A3006 RMK AO2 SLP181 60000 T01161050 51038 $

TAF AMD KFBG 070614Z 0706/0808 35015G25KT 9999 BKN025 QNH2996INS
  BECMG 0706/0707 35012G18KT 9999 BKN030 QNH3006INS
  BECMG 0712/0713 01009KT 9999 OVC045 QNH3018INS
  BECMG 0801/0802 VRB06KT 9000 -RA BKN010 QNH3019INS
  TEMPO 0803/0804 OVC003
  BECMG 0804/0805 VRB06KT 9999 NSW SCT016 QNH3007INS TX17/0706Z TN04/0806Z


KFAY 070853Z 01014KT 10SM OVC033 13/M03 A3006 RMK AO2 SLP174 T01281033 51019

KFAY 070724Z 0707/0806 01010G18KT P6SM BKN040 BKN060
  TEMPO 0707/0708 BKN025 OVC035
  FM071500 06006KT P6SM BKN040 OVC050
  FM080000 06004KT P6SM VCSH BKN025


KRWI 070540Z 0706/0806 36010G18KT P6SM BKN040 OVC050
  FM071200 06006KT P6SM BKN050
  FM080300 07003KT P6SM VCSH BKN025 AMD NOT SKED


KISO 070715Z AUTO 34011G18KT 10SM OVC028 15/05 A3003 RMK AO2 T01450050

KISO 070520Z 0706/0806 34012G19KT P6SM OVC030
  FM070900 01011G19KT P6SM OVC035
  FM071500 04009G14KT P6SM BKN070
  FM080100 07006KT P6SM BKN030 AMD LTD TO CLD VIS AND WIND


KGWW 070915Z AUTO 35007G14KT 10SM OVC038 11/M09 A3008 RMK AO2 T01081091


KGSB 070856Z 35009KT 10SM BKN035 12/M10 A3006 RMK AO2A SLP183 60000 T01201103 51038 $

TAF KGSB 070500Z 0705/0811 23010G15KT 9999 BKN040 QNH2985INS
  TEMPO 0705/0709 23015G25KT -RA
  BECMG 0709/0710 35010KT 9999 BKN050 QNH3000INS TX18/0705Z TN07/0712Z LAST NO AMDS AFT 0705 NEXT 0712


KDPL 070915Z 10SM OVC031 12/M04 A3007 RMK AO2


KCTZ 070715Z AUTO 36007KT 340V040 7SM SCT002 BKN008 OVC023 15/13 A3002 RMK AO2 T01500128


KORF 070851Z 36016G25KT 10SM OVC050 08/M05 A3010 RMK AO2 SLP193 T00781050 51038

KORF 070520Z 0706/0806 35014G23KT P6SM OVC040
  FM071000 36014G21KT P6SM SCT060
  FM071500 01010KT P6SM FEW120
  FM072200 03006KT P6SM SCT200
  FM080300 06005KT P6SM SCT120


KLFI 070856Z 34016KT 10SM OVC055 08/M09 A3011 RMK AO2A SLP203 T00781087 52039 $

TAF AMD KLFI 070606Z 0706/0808 33015G25KT 9999 BKN050 QNH2971INS
  BECMG 0711/0712 35012KT 9999 FEW220 QNH2980INS
  BECMG 0717/0718 02009KT 9999 SKC QNH2992INS
  BECMG 0804/0805 04009KT 9000 BR BKN030 OVC050 QNH3000INS TX12/0706Z TN04/0710Z


KNTU 070856Z 36014KT 10SM OVC050 10/M05 A3010 RMK AO2 PK WND 36031/0806 SLP195 T01001050 51039

TAF AMD KNTU 0708/0807 35018G25KT 9999 VCSH SCT020 OVC080 QNH3000INS
  TEMPO 0707/0708 35020G30KT 4800 SHRA OVC010
  BECMG 0708/0710 36013G22KT 9999 NSW FEW020 BKN260 QNH3005INS
  BECMG 0715/0717 04008KT 9999 FEW050 SCT260 QNH3010INS
  BECMG 0801/0803 03008KT 9999 FEW030 SCT080 SCT250 QNH3015INS T21/0623Z T06/0710Z AMD 0805Z FN00231


KECG 070854Z AUTO 02013KT 10SM OVC043 11/M01 A3008 RMK AO2 SLP184 60000 T01111011 51045

KECG 070520Z 0706/0806 35012G20KT P6SM OVC050
  FM071200 01011KT P6SM SCT060
  FM071700 04008KT P6SM SCT060
  FM080200 05005KT P6SM BKN050


KEWN 070854Z AUTO 36012G17KT 10SM OVC030 15/05 A3007 RMK AO2 RAE02 SLP181 P0000 60000 T01500050 53029

KEWN 070520Z 0706/0806 30006KT P6SM OVC040
  FM070700 32008G17KT P6SM OVC030
  FM071000 36010G18KT P6SM OVC035
  FM071700 04007KT P6SM BKN060
  FM080000 04006KT P6SM BKN030


TAF KNKT 0703/0803 21010KT 9999 SCT150 QNH2994INS
  FM070600 03012KT 9999 BKN030 QNH3000INS T17/0703Z T06/0803Z


KILM 070853Z AUTO 31005KT 10SM OVC044 17/14 A3001 RMK AO2 SLP163 T01720144 53013

KILM 070530Z 0706/0806 25006KT P6SM SCT060
  FM070900 36010G18KT P6SM OVC035
  FM071600 03009KT P6SM BKN025
  FM072300 04007KT P6SM OVC015
  FM080300 04007KT P6SM OVC007


KCAE 070856Z VRB05KT 10SM FEW027 15/09 A3002 RMK AO2 SLP164 T01500089 50015

KCAE 070847Z 0709/0806 02006KT P6SM OVC025
  FM071400 02005KT P6SM SCT020 BKN035
  TEMPO 0714/0718 BKN020
  FM080000 07003KT P6SM OVC035


KSSC 070915Z 02013KT 10SM BKN020 15/13 A3001 RMK AO2A SLP163

TAF AMD KSSC 070820Z 0708/0814 31009KT 9999 FEW017 BKN030 QNH3000INS
  BECMG 0709/0710 03009KT 9999 BKN020 BKN040 QNH3012INS
  BECMG 0723/0724 06004KT 9999 VCSH BKN030 BKN200 QNH3001INS
  BECMG 0808/0809 10004KT 6000 -SHRA FEW015 OVC020 QNH3000INS
  BECMG 0811/0812 32004KT 3200 SHRA FEW010 OVC012 QNH2999INS
  BECMG 0813/0814 28004KT 3200 SHRA BKN005 OVC012 QNH2999INS TX17/0708Z TN08/0713Z


KMMT 070856Z AUTO 34007KT 10SM CLR 15/15 A3000 RMK AO2 SLP161 T01520152 52015 $

TAF AMD KMMT 070900Z 0709/0814 02009KT 9999 OVC025 QNH2996INS
  TEMPO 0709/0710 OVC015
  BECMG 0710/0711 04009KT 9999 OVC030 QNH2999INS
  BECMG 0801/0802 VRB06KT 9999 BKN025 510023 QNH3007INS
  BECMG 0804/0805 VRB06KT 9999 BKN010 510023 QNH3005INS TX18/0719Z TN05/0808Z


KMYR 070856Z AUTO 00000KT 10SM SCT120 16/14 A3000 RMK AO2 SLP160 T01610144 50003

KMYR 070530Z 0706/0806 24006KT P6SM SCT090
  FM070900 34007KT P6SM OVC020
  FM071200 03012G19KT P6SM OVC035
  FM071500 03010KT P6SM BKN025
  FM072100 03007KT P6SM OVC015


KCHS 070856Z 25005KT 10SM SCT100 BKN120 16/14 A3001 RMK AO2 SLP162 T01610144 53007

KCHS 070535Z 0706/0806 21005KT P6SM FEW050 BKN150
  FM070900 31004KT P6SM SCT030 BKN050
  FM071300 04009KT P6SM OVC025
  FM072100 VRB03KT P6SM OVC020


KSAV 070853Z AUTO 27004KT 10SM BKN013 17/15 A3003 RMK AO2 SLP168 T01670150 53003

KSAV 070535Z 0706/0806 23004KT P6SM SCT080 BKN150
  FM071100 33004KT P6SM BKN015
  FM071600 05007KT P6SM BKN025
  FM080300 06004KT P6SM OVC008


KSVN 070911Z AUTO 28004KT 10SM BKN013 16/14 A3001 RMK AO2 BKN V SCT SLP165 $

TAF KSVN 070500Z 0705/0811 22009KT 9999 SCT130 BKN200 QNH2998INS
  BECMG 0707/0708 22006KT 9999 BKN015 QNH3006INS
  BECMG 0713/0714 31006KT 8000 BR OVC005 QNH3010INS
  BECMG 0720/0721 06006KT 9999 NSW BKN012 QNH3012INS TX19/0715Z TN12/0722Z


KDCA 070852Z 28006KT 10SM BKN250 03/M08 A3017 RMK AO2 SLP216 T00331083 51026

KDCA 070901Z 0709/0812 28006KT P6SM SKC
  FM071500 31007KT P6SM OVC150
  FM072300 00000KT P6SM OVC150
  FM080600 07003KT P6SM OVC120


KADW 070856Z AUTO 31006KT 10SM CLR 02/M08 A3014 RMK AO2 SLP214 T00191085 52026 $

TAF KADW 070900Z 0709/0815 31010G20KT 9999 SCT200 QNH3010INS
  BECMG 0711/0712 31010G15KT 9999 BKN200 QNH3020INS
  BECMG 0721/0722 VRB04KT 9999 SCT120 BKN200 QNH3020INS
  BECMG 0806/0807 VRB04KT 9999 SCT040 OVC100 QNH3020INS
  BECMG 0810/0811 VRB04KT 9999 VCSH SCT020 OVC040 620409 QNH3020INS
  BECMG 0811/0812 VRB04KT 9000 -SN SCT007 OVC020 650209 QNH3020INS
  BECMG 0813/0814 14004KT 3200 -SN BR SCT002 OVC007 650079 QNH3020INS TX04/0718Z TN01/0711Z